sensor_id;sensor_type;location;lat;lon;timestamp;P1;durP1;ratioP1;P2;durP2;ratioP2
41456;SDS011;27197;51.752;5.220;2023-08-01T00:00:54;3.08;;;1.60;;
41456;SDS011;27197;51.752;5.220;2023-08-01T00:03:28;3.95;;;2.37;;
41456;SDS011;27197;51.752;5.220;2023-08-01T00:05:58;3.47;;;1.82;;
41456;SDS011;27197;51.752;5.220;2023-08-01T00:08:31;3.52;;;1.47;;
41456;SDS011;27197;51.752;5.220;2023-08-01T00:11:03;3.35;;;1.60;;
41456;SDS011;27197;51.752;5.220;2023-08-01T00:13:33;2.87;;;1.60;;
41456;SDS011;27197;51.752;5.220;2023-08-01T00:16:04;2.40;;;1.47;;
41456;SDS011;27197;51.752;5.220;2023-08-01T00:18:35;4.33;;;2.17;;
41456;SDS011;27197;51.752;5.220;2023-08-01T00:21:07;2.77;;;1.32;;
41456;SDS011;27197;51.752;5.220;2023-08-01T00:23:37;3.30;;;1.87;;
41456;SDS011;27197;51.752;5.220;2023-08-01T00:26:09;3.15;;;1.20;;
41456;SDS011;27197;51.752;5.220;2023-08-01T00:28:41;4.95;;;2.77;;
41456;SDS011;27197;51.752;5.220;2023-08-01T00:31:11;4.47;;;2.25;;
41456;SDS011;27197;51.752;5.220;2023-08-01T00:33:41;5.03;;;1.98;;
41456;SDS011;27197;51.752;5.220;2023-08-01T00:36:15;6.08;;;1.92;;
41456;SDS011;27197;51.752;5.220;2023-08-01T00:38:47;4.67;;;1.70;;
41456;SDS011;27197;51.752;5.220;2023-08-01T00:41:16;3.98;;;1.80;;
41456;SDS011;27197;51.752;5.220;2023-08-01T00:43:46;3.75;;;1.92;;
41456;SDS011;27197;51.752;5.220;2023-08-01T00:46:17;3.45;;;1.70;;
41456;SDS011;27197;51.752;5.220;2023-08-01T00:48:47;5.30;;;1.75;;
41456;SDS011;27197;51.752;5.220;2023-08-01T00:51:18;5.17;;;2.00;;
41456;SDS011;27197;51.752;5.220;2023-08-01T00:53:54;4.40;;;2.22;;
41456;SDS011;27197;51.752;5.220;2023-08-01T00:56:25;4.92;;;2.05;;
41456;SDS011;27197;51.752;5.220;2023-08-01T00:59:00;4.10;;;1.27;;
41456;SDS011;27197;51.752;5.220;2023-08-01T01:01:30;2.95;;;1.40;;
41456;SDS011;27197;51.752;5.220;2023-08-01T01:04:00;3.80;;;1.98;;
41456;SDS011;27197;51.752;5.220;2023-08-01T01:06:50;6.35;;;2.58;;
41456;SDS011;27197;51.752;5.220;2023-08-01T01:09:18;2.95;;;1.50;;
41456;SDS011;27197;51.752;5.220;2023-08-01T01:11:49;4.40;;;1.60;;
41456;SDS011;27197;51.752;5.220;2023-08-01T01:14:20;3.60;;;1.60;;
41456;SDS011;27197;51.752;5.220;2023-08-01T01:16:49;4.85;;;2.17;;
41456;SDS011;27197;51.752;5.220;2023-08-01T01:19:18;3.15;;;1.62;;
41456;SDS011;27197;51.752;5.220;2023-08-01T01:21:51;6.55;;;2.30;;
41456;SDS011;27197;51.752;5.220;2023-08-01T01:24:20;2.72;;;1.27;;
41456;SDS011;27197;51.752;5.220;2023-08-01T01:27:24;3.20;;;1.40;;
41456;SDS011;27197;51.752;5.220;2023-08-01T01:29:57;3.47;;;1.70;;
41456;SDS011;27197;51.752;5.220;2023-08-01T01:32:30;6.72;;;2.27;;
41456;SDS011;27197;51.752;5.220;2023-08-01T01:35:00;5.37;;;1.87;;
41456;SDS011;27197;51.752;5.220;2023-08-01T01:37:33;4.53;;;2.30;;
41456;SDS011;27197;51.752;5.220;2023-08-01T01:40:04;8.03;;;2.12;;
41456;SDS011;27197;51.752;5.220;2023-08-01T01:42:35;3.92;;;1.40;;
41456;SDS011;27197;51.752;5.220;2023-08-01T01:45:06;3.95;;;1.67;;
41456;SDS011;27197;51.752;5.220;2023-08-01T01:47:39;3.45;;;1.30;;
41456;SDS011;27197;51.752;5.220;2023-08-01T01:50:10;8.10;;;2.65;;
41456;SDS011;27197;51.752;5.220;2023-08-01T01:52:40;4.42;;;1.92;;
41456;SDS011;27197;51.752;5.220;2023-08-01T01:55:10;4.87;;;1.10;;
41456;SDS011;27197;51.752;5.220;2023-08-01T01:57:40;9.03;;;3.05;;
41456;SDS011;27197;51.752;5.220;2023-08-01T02:00:10;6.20;;;2.40;;
41456;SDS011;27197;51.752;5.220;2023-08-01T02:02:42;5.37;;;2.30;;
41456;SDS011;27197;51.752;5.220;2023-08-01T02:05:14;3.30;;;1.37;;
41456;SDS011;27197;51.752;5.220;2023-08-01T02:07:44;8.35;;;2.20;;
41456;SDS011;27197;51.752;5.220;2023-08-01T02:10:14;7.10;;;2.25;;
41456;SDS011;27197;51.752;5.220;2023-08-01T02:12:43;3.08;;;1.47;;
41456;SDS011;27197;51.752;5.220;2023-08-01T02:15:14;7.03;;;2.52;;
41456;SDS011;27197;51.752;5.220;2023-08-01T02:17:44;3.22;;;1.60;;
41456;SDS011;27197;51.752;5.220;2023-08-01T02:20:14;10.65;;;2.35;;
41456;SDS011;27197;51.752;5.220;2023-08-01T02:22:44;6.22;;;2.17;;
41456;SDS011;27197;51.752;5.220;2023-08-01T02:25:15;6.72;;;2.55;;
41456;SDS011;27197;51.752;5.220;2023-08-01T02:27:46;7.55;;;2.75;;
41456;SDS011;27197;51.752;5.220;2023-08-01T02:30:17;4.42;;;2.17;;
41456;SDS011;27197;51.752;5.220;2023-08-01T02:32:49;4.70;;;1.72;;
41456;SDS011;27197;51.752;5.220;2023-08-01T02:35:21;3.55;;;1.52;;
41456;SDS011;27197;51.752;5.220;2023-08-01T02:37:50;5.10;;;1.98;;
41456;SDS011;27197;51.752;5.220;2023-08-01T02:40:20;4.10;;;1.60;;
41456;SDS011;27197;51.752;5.220;2023-08-01T02:42:50;7.60;;;2.98;;
41456;SDS011;27197;51.752;5.220;2023-08-01T02:45:19;5.30;;;2.17;;
41456;SDS011;27197;51.752;5.220;2023-08-01T02:47:52;8.20;;;2.70;;
41456;SDS011;27197;51.752;5.220;2023-08-01T02:50:21;7.42;;;2.50;;
41456;SDS011;27197;51.752;5.220;2023-08-01T02:52:52;3.08;;;1.50;;
41456;SDS011;27197;51.752;5.220;2023-08-01T02:55:26;5.08;;;2.30;;
41456;SDS011;27197;51.752;5.220;2023-08-01T02:57:55;10.55;;;2.77;;
41456;SDS011;27197;51.752;5.220;2023-08-01T03:00:25;5.12;;;2.52;;
41456;SDS011;27197;51.752;5.220;2023-08-01T03:02:57;7.58;;;2.67;;
41456;SDS011;27197;51.752;5.220;2023-08-01T03:05:28;6.97;;;2.35;;
41456;SDS011;27197;51.752;5.220;2023-08-01T03:08:01;5.22;;;2.45;;
41456;SDS011;27197;51.752;5.220;2023-08-01T03:10:30;8.35;;;3.25;;
41456;SDS011;27197;51.752;5.220;2023-08-01T03:13:03;7.00;;;3.33;;
41456;SDS011;27197;51.752;5.220;2023-08-01T03:15:33;7.42;;;2.37;;
41456;SDS011;27197;51.752;5.220;2023-08-01T03:18:04;6.47;;;2.50;;
41456;SDS011;27197;51.752;5.220;2023-08-01T03:20:35;5.15;;;2.00;;
41456;SDS011;27197;51.752;5.220;2023-08-01T03:23:06;5.28;;;2.02;;
41456;SDS011;27197;51.752;5.220;2023-08-01T03:25:35;5.05;;;1.98;;
41456;SDS011;27197;51.752;5.220;2023-08-01T03:28:08;10.58;;;2.98;;
41456;SDS011;27197;51.752;5.220;2023-08-01T03:30:38;8.53;;;3.10;;
41456;SDS011;27197;51.752;5.220;2023-08-01T03:33:09;7.12;;;2.60;;
41456;SDS011;27197;51.752;5.220;2023-08-01T03:35:41;7.95;;;2.87;;
41456;SDS011;27197;51.752;5.220;2023-08-01T03:38:12;6.03;;;2.75;;
41456;SDS011;27197;51.752;5.220;2023-08-01T03:40:43;5.15;;;2.67;;
41456;SDS011;27197;51.752;5.220;2023-08-01T03:43:12;8.63;;;2.75;;
41456;SDS011;27197;51.752;5.220;2023-08-01T03:45:42;4.15;;;1.72;;
41456;SDS011;27197;51.752;5.220;2023-08-01T03:48:12;6.33;;;3.25;;
41456;SDS011;27197;51.752;5.220;2023-08-01T03:50:44;4.72;;;2.62;;
41456;SDS011;27197;51.752;5.220;2023-08-01T03:53:14;6.50;;;3.17;;
41456;SDS011;27197;51.752;5.220;2023-08-01T03:55:44;3.42;;;1.62;;
41456;SDS011;27197;51.752;5.220;2023-08-01T03:58:14;8.65;;;2.87;;
41456;SDS011;27197;51.752;5.220;2023-08-01T04:00:46;8.00;;;2.95;;
41456;SDS011;27197;51.752;5.220;2023-08-01T04:03:16;7.95;;;3.35;;
41456;SDS011;27197;51.752;5.220;2023-08-01T04:05:46;5.05;;;2.20;;
41456;SDS011;27197;51.752;5.220;2023-08-01T04:08:16;6.35;;;2.72;;
41456;SDS011;27197;51.752;5.220;2023-08-01T04:10:48;8.08;;;3.15;;
41456;SDS011;27197;51.752;5.220;2023-08-01T04:13:23;5.72;;;2.30;;
41456;SDS011;27197;51.752;5.220;2023-08-01T04:15:52;6.55;;;2.98;;
41456;SDS011;27197;51.752;5.220;2023-08-01T04:18:23;11.00;;;4.17;;
41456;SDS011;27197;51.752;5.220;2023-08-01T04:20:53;8.23;;;3.05;;
41456;SDS011;27197;51.752;5.220;2023-08-01T04:23:23;4.70;;;1.80;;
41456;SDS011;27197;51.752;5.220;2023-08-01T04:25:55;10.75;;;4.80;;
41456;SDS011;27197;51.752;5.220;2023-08-01T04:28:25;9.13;;;3.42;;
41456;SDS011;27197;51.752;5.220;2023-08-01T04:30:54;3.87;;;2.00;;
41456;SDS011;27197;51.752;5.220;2023-08-01T04:33:25;9.15;;;3.92;;
41456;SDS011;27197;51.752;5.220;2023-08-01T04:35:53;8.30;;;4.42;;
41456;SDS011;27197;51.752;5.220;2023-08-01T04:38:23;9.20;;;3.35;;
41456;SDS011;27197;51.752;5.220;2023-08-01T04:40:56;8.23;;;3.37;;
41456;SDS011;27197;51.752;5.220;2023-08-01T04:43:27;10.40;;;4.10;;
41456;SDS011;27197;51.752;5.220;2023-08-01T04:46:00;4.33;;;2.05;;
41456;SDS011;27197;51.752;5.220;2023-08-01T04:48:30;4.80;;;1.90;;
41456;SDS011;27197;51.752;5.220;2023-08-01T04:50:59;8.70;;;3.30;;
41456;SDS011;27197;51.752;5.220;2023-08-01T04:53:28;7.37;;;4.10;;
41456;SDS011;27197;51.752;5.220;2023-08-01T04:55:58;9.05;;;4.42;;
41456;SDS011;27197;51.752;5.220;2023-08-01T04:58:29;10.95;;;4.80;;
41456;SDS011;27197;51.752;5.220;2023-08-01T05:00:58;10.00;;;4.40;;
41456;SDS011;27197;51.752;5.220;2023-08-01T05:03:27;9.08;;;4.00;;
41456;SDS011;27197;51.752;5.220;2023-08-01T05:05:58;14.20;;;4.95;;
41456;SDS011;27197;51.752;5.220;2023-08-01T05:08:28;12.20;;;5.12;;
41456;SDS011;27197;51.752;5.220;2023-08-01T05:10:58;7.08;;;3.27;;
41456;SDS011;27197;51.752;5.220;2023-08-01T05:13:33;7.17;;;2.80;;
41456;SDS011;27197;51.752;5.220;2023-08-01T05:16:03;8.30;;;3.77;;
41456;SDS011;27197;51.752;5.220;2023-08-01T05:21:21;8.40;;;4.10;;
41456;SDS011;27197;51.752;5.220;2023-08-01T05:23:50;8.55;;;4.08;;
41456;SDS011;27197;51.752;5.220;2023-08-01T05:26:20;8.13;;;3.70;;
41456;SDS011;27197;51.752;5.220;2023-08-01T05:28:50;8.03;;;2.87;;
41456;SDS011;27197;51.752;5.220;2023-08-01T05:31:19;9.60;;;3.90;;
41456;SDS011;27197;51.752;5.220;2023-08-01T05:33:52;5.47;;;2.37;;
41456;SDS011;27197;51.752;5.220;2023-08-01T05:36:22;7.33;;;3.30;;
41456;SDS011;27197;51.752;5.220;2023-08-01T05:38:54;8.65;;;4.42;;
41456;SDS011;27197;51.752;5.220;2023-08-01T05:41:23;9.93;;;3.77;;
41456;SDS011;27197;51.752;5.220;2023-08-01T05:43:53;11.00;;;4.03;;
41456;SDS011;27197;51.752;5.220;2023-08-01T05:46:26;7.85;;;2.83;;
41456;SDS011;27197;51.752;5.220;2023-08-01T05:48:56;9.70;;;3.15;;
41456;SDS011;27197;51.752;5.220;2023-08-01T05:51:26;8.05;;;3.20;;
41456;SDS011;27197;51.752;5.220;2023-08-01T05:53:58;9.28;;;3.70;;
41456;SDS011;27197;51.752;5.220;2023-08-01T05:56:28;10.23;;;3.35;;
41456;SDS011;27197;51.752;5.220;2023-08-01T05:58:57;5.05;;;2.10;;
41456;SDS011;27197;51.752;5.220;2023-08-01T06:01:30;6.40;;;3.08;;
41456;SDS011;27197;51.752;5.220;2023-08-01T06:03:59;7.25;;;3.02;;
41456;SDS011;27197;51.752;5.220;2023-08-01T06:06:30;7.00;;;3.10;;
41456;SDS011;27197;51.752;5.220;2023-08-01T06:09:02;10.35;;;3.87;;
41456;SDS011;27197;51.752;5.220;2023-08-01T06:11:35;11.12;;;3.50;;
41456;SDS011;27197;51.752;5.220;2023-08-01T06:14:05;13.85;;;4.10;;
41456;SDS011;27197;51.752;5.220;2023-08-01T06:16:36;7.72;;;3.90;;
41456;SDS011;27197;51.752;5.220;2023-08-01T06:19:06;12.58;;;3.77;;
41456;SDS011;27197;51.752;5.220;2023-08-01T06:21:37;13.95;;;3.83;;
41456;SDS011;27197;51.752;5.220;2023-08-01T06:24:07;9.38;;;3.30;;
41456;SDS011;27197;51.752;5.220;2023-08-01T06:26:36;16.07;;;4.20;;
41456;SDS011;27197;51.752;5.220;2023-08-01T06:29:06;8.73;;;3.75;;
41456;SDS011;27197;51.752;5.220;2023-08-01T06:31:38;11.28;;;3.70;;
41456;SDS011;27197;51.752;5.220;2023-08-01T06:34:13;14.30;;;4.42;;
41456;SDS011;27197;51.752;5.220;2023-08-01T06:36:43;10.38;;;3.70;;
41456;SDS011;27197;51.752;5.220;2023-08-01T06:39:12;10.20;;;3.20;;
41456;SDS011;27197;51.752;5.220;2023-08-01T06:41:43;12.18;;;3.30;;
41456;SDS011;27197;51.752;5.220;2023-08-01T06:44:13;7.00;;;3.45;;
41456;SDS011;27197;51.752;5.220;2023-08-01T06:46:42;9.38;;;3.30;;
41456;SDS011;27197;51.752;5.220;2023-08-01T06:49:12;7.05;;;2.95;;
41456;SDS011;27197;51.752;5.220;2023-08-01T06:51:42;7.97;;;3.27;;
41456;SDS011;27197;51.752;5.220;2023-08-01T06:54:16;9.10;;;2.80;;
41456;SDS011;27197;51.752;5.220;2023-08-01T06:56:46;7.67;;;3.10;;
41456;SDS011;27197;51.752;5.220;2023-08-01T06:59:15;8.03;;;3.00;;
41456;SDS011;27197;51.752;5.220;2023-08-01T07:01:48;8.90;;;2.67;;
41456;SDS011;27197;51.752;5.220;2023-08-01T07:04:21;6.50;;;2.87;;
41456;SDS011;27197;51.752;5.220;2023-08-01T07:06:51;8.68;;;2.87;;
41456;SDS011;27197;51.752;5.220;2023-08-01T07:09:21;7.03;;;2.72;;
41456;SDS011;27197;51.752;5.220;2023-08-01T07:11:52;9.23;;;3.15;;
41456;SDS011;27197;51.752;5.220;2023-08-01T07:14:23;7.45;;;2.47;;
41456;SDS011;27197;51.752;5.220;2023-08-01T07:16:53;7.60;;;2.77;;
41456;SDS011;27197;51.752;5.220;2023-08-01T07:19:24;8.65;;;2.55;;
41456;SDS011;27197;51.752;5.220;2023-08-01T07:21:54;6.30;;;2.55;;
41456;SDS011;27197;51.752;5.220;2023-08-01T07:24:28;8.65;;;2.33;;
41456;SDS011;27197;51.752;5.220;2023-08-01T07:26:58;8.10;;;2.72;;
41456;SDS011;27197;51.752;5.220;2023-08-01T07:29:28;8.43;;;2.35;;
41456;SDS011;27197;51.752;5.220;2023-08-01T07:31:58;5.85;;;2.42;;
41456;SDS011;27197;51.752;5.220;2023-08-01T07:34:30;5.37;;;2.55;;
41456;SDS011;27197;51.752;5.220;2023-08-01T07:37:01;5.65;;;2.40;;
41456;SDS011;27197;51.752;5.220;2023-08-01T07:39:33;6.70;;;2.50;;
41456;SDS011;27197;51.752;5.220;2023-08-01T07:42:05;5.22;;;2.08;;
41456;SDS011;27197;51.752;5.220;2023-08-01T07:44:38;7.90;;;2.72;;
41456;SDS011;27197;51.752;5.220;2023-08-01T07:47:10;10.05;;;2.60;;
41456;SDS011;27197;51.752;5.220;2023-08-01T07:49:39;4.67;;;2.15;;
41456;SDS011;27197;51.752;5.220;2023-08-01T07:52:11;5.37;;;2.17;;
41456;SDS011;27197;51.752;5.220;2023-08-01T07:54:41;7.83;;;2.62;;
41456;SDS011;27197;51.752;5.220;2023-08-01T07:57:11;7.92;;;2.52;;
41456;SDS011;27197;51.752;5.220;2023-08-01T08:02:30;6.12;;;2.50;;
41456;SDS011;27197;51.752;5.220;2023-08-01T08:04:59;12.75;;;2.87;;
41456;SDS011;27197;51.752;5.220;2023-08-01T08:07:28;6.20;;;2.25;;
41456;SDS011;27197;51.752;5.220;2023-08-01T08:09:57;5.87;;;2.20;;
41456;SDS011;27197;51.752;5.220;2023-08-01T08:12:27;4.20;;;1.77;;
41456;SDS011;27197;51.752;5.220;2023-08-01T08:14:58;5.90;;;2.77;;
41456;SDS011;27197;51.752;5.220;2023-08-01T08:17:28;6.05;;;2.10;;
41456;SDS011;27197;51.752;5.220;2023-08-01T08:19:59;7.17;;;2.50;;
41456;SDS011;27197;51.752;5.220;2023-08-01T08:22:27;8.15;;;2.80;;
41456;SDS011;27197;51.752;5.220;2023-08-01T08:24:57;6.42;;;2.22;;
41456;SDS011;27197;51.752;5.220;2023-08-01T08:27:28;4.78;;;1.82;;
41456;SDS011;27197;51.752;5.220;2023-08-01T08:29:56;4.65;;;1.92;;
41456;SDS011;27197;51.752;5.220;2023-08-01T08:32:28;4.70;;;1.85;;
41456;SDS011;27197;51.752;5.220;2023-08-01T08:34:56;8.85;;;2.42;;
41456;SDS011;27197;51.752;5.220;2023-08-01T08:37:25;5.40;;;1.70;;
41456;SDS011;27197;51.752;5.220;2023-08-01T08:39:56;6.40;;;1.98;;
41456;SDS011;27197;51.752;5.220;2023-08-01T08:42:29;4.42;;;1.82;;
41456;SDS011;27197;51.752;5.220;2023-08-01T08:45:00;6.70;;;2.77;;
41456;SDS011;27197;51.752;5.220;2023-08-01T08:47:30;4.00;;;1.90;;
41456;SDS011;27197;51.752;5.220;2023-08-01T08:50:03;6.10;;;2.27;;
41456;SDS011;27197;51.752;5.220;2023-08-01T08:52:36;3.87;;;1.95;;
41456;SDS011;27197;51.752;5.220;2023-08-01T08:55:06;5.35;;;2.08;;
41456;SDS011;27197;51.752;5.220;2023-08-01T08:57:35;5.20;;;2.17;;
41456;SDS011;27197;51.752;5.220;2023-08-01T09:00:04;3.67;;;1.80;;
41456;SDS011;27197;51.752;5.220;2023-08-01T09:02:35;5.58;;;2.05;;
41456;SDS011;27197;51.752;5.220;2023-08-01T09:05:06;8.68;;;2.33;;
41456;SDS011;27197;51.752;5.220;2023-08-01T09:07:38;6.03;;;2.80;;
41456;SDS011;27197;51.752;5.220;2023-08-01T09:10:13;7.15;;;2.30;;
41456;SDS011;27197;51.752;5.220;2023-08-01T09:12:43;5.03;;;2.08;;
41456;SDS011;27197;51.752;5.220;2023-08-01T09:15:14;5.33;;;1.90;;
41456;SDS011;27197;51.752;5.220;2023-08-01T09:17:51;6.62;;;2.37;;
41456;SDS011;27197;51.752;5.220;2023-08-01T09:20:21;4.78;;;1.90;;
41456;SDS011;27197;51.752;5.220;2023-08-01T09:22:52;6.05;;;2.05;;
41456;SDS011;27197;51.752;5.220;2023-08-01T09:28:19;5.30;;;2.08;;
41456;SDS011;27197;51.752;5.220;2023-08-01T09:30:50;6.28;;;2.27;;
41456;SDS011;27197;51.752;5.220;2023-08-01T09:33:19;5.22;;;1.92;;
41456;SDS011;27197;51.752;5.220;2023-08-01T09:35:52;6.62;;;1.90;;
41456;SDS011;27197;51.752;5.220;2023-08-01T09:38:22;5.92;;;2.08;;
41456;SDS011;27197;51.752;5.220;2023-08-01T09:40:53;7.20;;;2.35;;
41456;SDS011;27197;51.752;5.220;2023-08-01T09:43:25;4.85;;;1.90;;
41456;SDS011;27197;51.752;5.220;2023-08-01T09:45:58;3.98;;;1.55;;
41456;SDS011;27197;51.752;5.220;2023-08-01T09:48:28;4.97;;;1.75;;
41456;SDS011;27197;51.752;5.220;2023-08-01T09:51:10;5.20;;;1.90;;
41456;SDS011;27197;51.752;5.220;2023-08-01T09:53:51;5.40;;;2.02;;
41456;SDS011;27197;51.752;5.220;2023-08-01T09:56:20;5.92;;;1.92;;
41456;SDS011;27197;51.752;5.220;2023-08-01T09:58:55;7.53;;;2.20;;
41456;SDS011;27197;51.752;5.220;2023-08-01T10:01:28;4.72;;;1.92;;
41456;SDS011;27197;51.752;5.220;2023-08-01T10:04:01;4.53;;;1.87;;
41456;SDS011;27197;51.752;5.220;2023-08-01T10:06:34;6.12;;;1.90;;
41456;SDS011;27197;51.752;5.220;2023-08-01T10:09:06;7.97;;;2.05;;
41456;SDS011;27197;51.752;5.220;2023-08-01T10:11:39;5.15;;;1.85;;
41456;SDS011;27197;51.752;5.220;2023-08-01T10:14:11;5.22;;;1.40;;
41456;SDS011;27197;51.752;5.220;2023-08-01T10:16:45;5.05;;;1.82;;
41456;SDS011;27197;51.752;5.220;2023-08-01T10:19:14;8.03;;;1.87;;
41456;SDS011;27197;51.752;5.220;2023-08-01T10:21:45;6.37;;;1.57;;
41456;SDS011;27197;51.752;5.220;2023-08-01T10:24:18;8.88;;;1.90;;
41456;SDS011;27197;51.752;5.220;2023-08-01T10:26:51;6.58;;;2.00;;
41456;SDS011;27197;51.752;5.220;2023-08-01T10:29:21;3.50;;;1.50;;
41456;SDS011;27197;51.752;5.220;2023-08-01T10:31:56;5.70;;;1.77;;
41456;SDS011;27197;51.752;5.220;2023-08-01T10:34:28;3.87;;;1.72;;
41456;SDS011;27197;51.752;5.220;2023-08-01T10:36:56;5.35;;;1.82;;
41456;SDS011;27197;51.752;5.220;2023-08-01T10:39:28;4.17;;;1.65;;
41456;SDS011;27197;51.752;5.220;2023-08-01T10:41:59;5.22;;;2.17;;
41456;SDS011;27197;51.752;5.220;2023-08-01T10:44:30;8.13;;;3.52;;
41456;SDS011;27197;51.752;5.220;2023-08-01T10:47:02;3.27;;;1.67;;
41456;SDS011;27197;51.752;5.220;2023-08-01T10:49:41;3.58;;;1.52;;
41456;SDS011;27197;51.752;5.220;2023-08-01T10:54:56;6.55;;;2.10;;
41456;SDS011;27197;51.752;5.220;2023-08-01T10:57:26;4.60;;;1.70;;
41456;SDS011;27197;51.752;5.220;2023-08-01T10:59:58;5.90;;;1.65;;
41456;SDS011;27197;51.752;5.220;2023-08-01T11:02:31;4.72;;;1.75;;
41456;SDS011;27197;51.752;5.220;2023-08-01T11:05:08;5.35;;;2.10;;
41456;SDS011;27197;51.752;5.220;2023-08-01T11:07:40;3.65;;;1.65;;
41456;SDS011;27197;51.752;5.220;2023-08-01T11:10:13;4.42;;;1.90;;
41456;SDS011;27197;51.752;5.220;2023-08-01T11:12:43;4.55;;;1.75;;
41456;SDS011;27197;51.752;5.220;2023-08-01T11:15:13;3.72;;;1.55;;
41456;SDS011;27197;51.752;5.220;2023-08-01T11:17:48;7.05;;;1.82;;
41456;SDS011;27197;51.752;5.220;2023-08-01T11:20:21;4.95;;;1.65;;
41456;SDS011;27197;51.752;5.220;2023-08-01T11:28:15;4.15;;;1.40;;
41456;SDS011;27197;51.752;5.220;2023-08-01T11:30:43;5.33;;;1.70;;
41456;SDS011;27197;51.752;5.220;2023-08-01T11:35:50;5.62;;;1.67;;
41456;SDS011;27197;51.752;5.220;2023-08-01T11:38:28;4.53;;;1.40;;
41456;SDS011;27197;51.752;5.220;2023-08-01T11:41:04;6.62;;;1.70;;
41456;SDS011;27197;51.752;5.220;2023-08-01T11:43:41;5.50;;;1.55;;
41456;SDS011;27197;51.752;5.220;2023-08-01T11:46:12;4.83;;;1.35;;
41456;SDS011;27197;51.752;5.220;2023-08-01T11:48:47;6.15;;;1.62;;
41456;SDS011;27197;51.752;5.220;2023-08-01T11:51:16;4.62;;;1.40;;
41456;SDS011;27197;51.752;5.220;2023-08-01T11:56:35;4.15;;;1.70;;
41456;SDS011;27197;51.752;5.220;2023-08-01T12:01:44;5.12;;;1.52;;
41456;SDS011;27197;51.752;5.220;2023-08-01T12:04:27;4.92;;;1.70;;
41456;SDS011;27197;51.752;5.220;2023-08-01T12:06:56;6.28;;;1.50;;
41456;SDS011;27197;51.752;5.220;2023-08-01T12:09:32;4.85;;;1.37;;
41456;SDS011;27197;51.752;5.220;2023-08-01T12:12:03;5.00;;;1.65;;
41456;SDS011;27197;51.752;5.220;2023-08-01T12:14:40;3.40;;;1.30;;
41456;SDS011;27197;51.752;5.220;2023-08-01T12:17:11;3.42;;;1.32;;
41456;SDS011;27197;51.752;5.220;2023-08-01T12:19:42;5.37;;;2.00;;
41456;SDS011;27197;51.752;5.220;2023-08-01T12:22:12;4.87;;;1.82;;
41456;SDS011;27197;51.752;5.220;2023-08-01T12:24:47;3.83;;;1.65;;
41456;SDS011;27197;51.752;5.220;2023-08-01T12:27:16;4.35;;;1.85;;
41456;SDS011;27197;51.752;5.220;2023-08-01T12:29:49;4.78;;;1.40;;
41456;SDS011;27197;51.752;5.220;2023-08-01T12:32:19;5.55;;;1.52;;
41456;SDS011;27197;51.752;5.220;2023-08-01T12:34:53;4.72;;;1.70;;
41456;SDS011;27197;51.752;5.220;2023-08-01T12:37:21;3.67;;;1.57;;
41456;SDS011;27197;51.752;5.220;2023-08-01T12:39:50;6.03;;;2.20;;
41456;SDS011;27197;51.752;5.220;2023-08-01T12:42:19;8.13;;;1.62;;
41456;SDS011;27197;51.752;5.220;2023-08-01T12:44:47;3.15;;;1.52;;
41456;SDS011;27197;51.752;5.220;2023-08-01T12:47:17;4.78;;;1.40;;
41456;SDS011;27197;51.752;5.220;2023-08-01T12:49:47;5.78;;;1.70;;
41456;SDS011;27197;51.752;5.220;2023-08-01T12:52:23;3.45;;;1.40;;
41456;SDS011;27197;51.752;5.220;2023-08-01T12:54:57;5.30;;;1.67;;
41456;SDS011;27197;51.752;5.220;2023-08-01T12:57:27;7.47;;;1.70;;
41456;SDS011;27197;51.752;5.220;2023-08-01T12:59:57;4.22;;;1.45;;
41456;SDS011;27197;51.752;5.220;2023-08-01T13:02:27;6.45;;;1.70;;
41456;SDS011;27197;51.752;5.220;2023-08-01T13:04:58;6.25;;;1.47;;
41456;SDS011;27197;51.752;5.220;2023-08-01T13:07:28;4.53;;;1.35;;
41456;SDS011;27197;51.752;5.220;2023-08-01T13:10:01;3.67;;;1.32;;
41456;SDS011;27197;51.752;5.220;2023-08-01T13:12:30;3.58;;;1.50;;
41456;SDS011;27197;51.752;5.220;2023-08-01T13:15:02;5.58;;;1.25;;
41456;SDS011;27197;51.752;5.220;2023-08-01T13:17:33;3.65;;;1.60;;
41456;SDS011;27197;51.752;5.220;2023-08-01T13:20:04;5.72;;;1.50;;
41456;SDS011;27197;51.752;5.220;2023-08-01T13:22:36;6.22;;;1.50;;
41456;SDS011;27197;51.752;5.220;2023-08-01T13:25:06;5.42;;;1.37;;
41456;SDS011;27197;51.752;5.220;2023-08-01T13:27:37;3.77;;;1.40;;
41456;SDS011;27197;51.752;5.220;2023-08-01T13:30:07;4.67;;;1.45;;
41456;SDS011;27197;51.752;5.220;2023-08-01T13:32:43;2.85;;;1.00;;
41456;SDS011;27197;51.752;5.220;2023-08-01T13:35:15;2.85;;;1.22;;
41456;SDS011;27197;51.752;5.220;2023-08-01T13:37:45;6.42;;;1.70;;
41456;SDS011;27197;51.752;5.220;2023-08-01T13:40:17;3.65;;;1.02;;
41456;SDS011;27197;51.752;5.220;2023-08-01T13:42:46;5.08;;;1.55;;
41456;SDS011;27197;51.752;5.220;2023-08-01T13:45:14;7.95;;;1.70;;
41456;SDS011;27197;51.752;5.220;2023-08-01T13:47:43;5.95;;;1.80;;
41456;SDS011;27197;51.752;5.220;2023-08-01T13:50:14;2.40;;;1.10;;
41456;SDS011;27197;51.752;5.220;2023-08-01T13:52:43;2.87;;;1.02;;
41456;SDS011;27197;51.752;5.220;2023-08-01T13:55:13;2.55;;;1.15;;
41456;SDS011;27197;51.752;5.220;2023-08-01T13:57:43;2.45;;;1.00;;
41456;SDS011;27197;51.752;5.220;2023-08-01T14:00:12;4.37;;;1.40;;
41456;SDS011;27197;51.752;5.220;2023-08-01T14:02:44;5.92;;;1.50;;
41456;SDS011;27197;51.752;5.220;2023-08-01T14:05:12;3.33;;;1.47;;
41456;SDS011;27197;51.752;5.220;2023-08-01T14:07:42;3.45;;;1.17;;
41456;SDS011;27197;51.752;5.220;2023-08-01T14:10:12;3.90;;;1.30;;
41456;SDS011;27197;51.752;5.220;2023-08-01T14:12:43;4.60;;;1.50;;
41456;SDS011;27197;51.752;5.220;2023-08-01T14:15:14;3.45;;;1.42;;
41456;SDS011;27197;51.752;5.220;2023-08-01T14:17:45;4.58;;;1.10;;
41456;SDS011;27197;51.752;5.220;2023-08-01T14:20:15;4.95;;;1.20;;
41456;SDS011;27197;51.752;5.220;2023-08-01T14:22:46;3.98;;;1.62;;
41456;SDS011;27197;51.752;5.220;2023-08-01T14:25:15;4.28;;;0.95;;
41456;SDS011;27197;51.752;5.220;2023-08-01T14:27:48;4.08;;;1.30;;
41456;SDS011;27197;51.752;5.220;2023-08-01T14:30:22;3.08;;;1.50;;
41456;SDS011;27197;51.752;5.220;2023-08-01T14:33:04;4.87;;;1.50;;
41456;SDS011;27197;51.752;5.220;2023-08-01T14:35:26;5.50;;;1.20;;
41456;SDS011;27197;51.752;5.220;2023-08-01T14:37:57;4.15;;;1.00;;
41456;SDS011;27197;51.752;5.220;2023-08-01T14:40:29;3.35;;;1.30;;
41456;SDS011;27197;51.752;5.220;2023-08-01T14:43:00;3.83;;;1.05;;
41456;SDS011;27197;51.752;5.220;2023-08-01T14:45:30;4.75;;;1.32;;
41456;SDS011;27197;51.752;5.220;2023-08-01T14:48:01;3.62;;;1.07;;
41456;SDS011;27197;51.752;5.220;2023-08-01T14:50:30;3.87;;;1.30;;
41456;SDS011;27197;51.752;5.220;2023-08-01T14:53:00;3.83;;;1.10;;
41456;SDS011;27197;51.752;5.220;2023-08-01T14:55:31;4.72;;;1.10;;
41456;SDS011;27197;51.752;5.220;2023-08-01T14:58:04;3.77;;;1.20;;
41456;SDS011;27197;51.752;5.220;2023-08-01T15:00:36;3.85;;;1.05;;
41456;SDS011;27197;51.752;5.220;2023-08-01T15:03:06;3.55;;;1.40;;
41456;SDS011;27197;51.752;5.220;2023-08-01T15:05:38;2.62;;;1.10;;
41456;SDS011;27197;51.752;5.220;2023-08-01T15:08:11;2.65;;;0.90;;
41456;SDS011;27197;51.752;5.220;2023-08-01T15:10:41;4.00;;;1.30;;
41456;SDS011;27197;51.752;5.220;2023-08-01T15:13:12;2.65;;;1.22;;
41456;SDS011;27197;51.752;5.220;2023-08-01T15:15:41;2.70;;;1.10;;
41456;SDS011;27197;51.752;5.220;2023-08-01T15:18:11;4.25;;;1.20;;
41456;SDS011;27197;51.752;5.220;2023-08-01T15:20:41;3.12;;;0.95;;
41456;SDS011;27197;51.752;5.220;2023-08-01T15:23:10;4.30;;;1.12;;
41456;SDS011;27197;51.752;5.220;2023-08-01T15:25:41;3.52;;;1.07;;
41456;SDS011;27197;51.752;5.220;2023-08-01T15:28:24;3.50;;;1.07;;
41456;SDS011;27197;51.752;5.220;2023-08-01T15:31:05;3.30;;;1.25;;
41456;SDS011;27197;51.752;5.220;2023-08-01T15:33:36;3.75;;;1.10;;
41456;SDS011;27197;51.752;5.220;2023-08-01T15:36:07;3.62;;;1.42;;